createdAt,value
2022-11-09T00:00:36.393Z,4.40
2022-11-09T00:03:04.753Z,4.63
2022-11-09T00:05:31.626Z,4.23
2022-11-09T00:07:58.528Z,4.60
2022-11-09T00:10:25.364Z,4.40
2022-11-09T00:12:52.165Z,4.17
2022-11-09T00:15:19.000Z,4.60
2022-11-09T00:17:45.817Z,4.37
2022-11-09T00:20:14.168Z,4.13
2022-11-09T00:22:40.985Z,4.40
2022-11-09T00:25:08.787Z,3.93
2022-11-09T00:27:35.637Z,4.20
2022-11-09T00:30:02.552Z,4.50
2022-11-09T00:32:29.448Z,3.60
2022-11-09T00:34:56.379Z,4.63
2022-11-09T00:37:24.798Z,4.50
2022-11-09T00:39:51.659Z,4.40
2022-11-09T00:42:18.539Z,4.40
2022-11-09T00:44:45.381Z,4.63
2022-11-09T00:47:12.255Z,4.47
2022-11-09T00:49:39.158Z,4.50
2022-11-09T00:52:06.054Z,4.67
2022-11-09T00:54:34.224Z,4.13
2022-11-09T00:57:01.073Z,4.83
2022-11-09T00:59:27.929Z,5.23
2022-11-09T01:01:54.755Z,4.50
2022-11-09T01:04:21.636Z,5.67
2022-11-09T01:06:48.525Z,5.30
2022-11-09T01:09:15.394Z,4.77
2022-11-09T01:11:43.602Z,4.93
2022-11-09T01:14:10.824Z,4.90
2022-11-09T01:16:38.898Z,5.30
2022-11-09T01:19:05.807Z,4.50
2022-11-09T01:21:32.895Z,4.80
2022-11-09T01:24:00.011Z,5.67
2022-11-09T01:26:26.906Z,5.20
2022-11-09T01:28:55.256Z,5.20
2022-11-09T01:31:22.605Z,4.80
2022-11-09T01:33:50.106Z,4.57
2022-11-09T01:36:19.744Z,5.30
2022-11-09T01:38:46.829Z,4.63
2022-11-09T01:41:15.972Z,5.10
2022-11-09T01:43:43.397Z,5.47
2022-11-09T01:46:19.387Z,5.70
2022-11-09T01:48:50.116Z,5.70
2022-11-09T01:51:27.668Z,5.93
2022-11-09T01:54:01.982Z,5.40
2022-11-09T01:56:30.231Z,5.67
2022-11-09T01:59:01.186Z,6.33
2022-11-09T02:01:30.502Z,5.63
2022-11-09T02:04:04.937Z,5.27
2022-11-09T02:06:32.738Z,5.97
2022-11-09T02:09:05.817Z,6.60
2022-11-09T02:11:33.493Z,6.10
2022-11-09T02:14:02.614Z,7.07
2022-11-09T02:16:31.618Z,7.10
2022-11-09T02:19:00.861Z,6.80
2022-11-09T02:21:30.935Z,7.30
2022-11-09T02:23:58.256Z,7.50
2022-11-09T02:26:30.180Z,7.63
2022-11-09T02:28:58.436Z,8.23
2022-11-09T02:31:31.094Z,7.80
2022-11-09T02:34:05.106Z,7.43
2022-11-09T02:36:33.985Z,8.20
2022-11-09T02:39:01.111Z,7.40
2022-11-09T02:41:30.356Z,7.90
2022-11-09T02:43:57.965Z,8.10
2022-11-09T02:46:26.449Z,8.43
2022-11-09T02:48:53.305Z,7.73
2022-11-09T02:51:20.169Z,8.47
2022-11-09T02:53:48.344Z,7.57
2022-11-09T02:56:15.195Z,7.97
2022-11-09T02:58:42.064Z,7.50
2022-11-09T03:01:08.995Z,7.10
2022-11-09T03:03:36.014Z,7.47
2022-11-09T03:06:03.737Z,7.70
2022-11-09T03:08:30.610Z,6.40
2022-11-09T03:10:59.428Z,7.03
2022-11-09T03:13:26.255Z,7.10
2022-11-09T03:15:53.056Z,6.10
2022-11-09T03:18:19.951Z,6.83
2022-11-09T03:20:46.826Z,6.77
2022-11-09T03:23:13.711Z,6.20
2022-11-09T03:25:40.547Z,6.10
2022-11-09T03:28:08.817Z,7.00
2022-11-09T03:30:35.778Z,8.07
2022-11-09T03:33:05.452Z,8.30
2022-11-09T03:35:32.730Z,7.57
2022-11-09T03:37:59.569Z,8.83
2022-11-09T03:40:26.442Z,7.87
2022-11-09T03:42:53.237Z,8.43
2022-11-09T03:45:21.501Z,8.63
2022-11-09T03:47:48.551Z,8.37
2022-11-09T03:50:16.932Z,9.10
2022-11-09T03:52:45.503Z,8.17
2022-11-09T03:55:13.190Z,8.10
2022-11-09T03:57:40.486Z,7.73
2022-11-09T04:00:09.055Z,7.77
2022-11-09T04:02:37.378Z,7.37
2022-11-09T04:05:05.316Z,8.30
2022-11-09T04:07:32.421Z,8.53
2022-11-09T04:09:59.200Z,8.20
2022-11-09T04:12:26.228Z,8.43
2022-11-09T04:14:53.049Z,8.37
2022-11-09T04:17:19.892Z,8.00
2022-11-09T04:19:48.073Z,7.83
2022-11-09T04:22:15.064Z,9.03
2022-11-09T04:24:41.867Z,8.40
2022-11-09T04:27:08.753Z,8.80
2022-11-09T04:29:35.608Z,9.00
2022-11-09T04:32:02.489Z,8.47
2022-11-09T04:34:29.296Z,8.77
2022-11-09T04:36:57.488Z,8.43
2022-11-09T04:39:24.327Z,8.30
2022-11-09T04:41:51.241Z,9.03
2022-11-09T04:44:18.158Z,9.17
2022-11-09T04:46:44.964Z,9.50
2022-11-09T04:49:11.770Z,9.20
2022-11-09T04:51:38.668Z,9.20
2022-11-09T04:54:06.893Z,9.43
2022-11-09T04:56:33.717Z,9.97
2022-11-09T04:59:00.568Z,9.57
2022-11-09T05:01:27.441Z,10.00
2022-11-09T05:03:54.375Z,9.90
2022-11-09T05:06:33.418Z,9.40
2022-11-09T05:09:01.603Z,10.13
2022-11-09T05:11:30.323Z,8.60
2022-11-09T05:13:57.188Z,8.23
2022-11-09T05:16:24.473Z,9.13
2022-11-09T05:18:51.879Z,9.00
2022-11-09T05:21:19.196Z,8.03
2022-11-09T05:24:01.473Z,9.93
2022-11-09T05:26:31.344Z,8.27
2022-11-09T05:28:59.194Z,8.87
2022-11-09T05:31:27.235Z,8.70
2022-11-09T05:33:54.366Z,8.77
2022-11-09T05:36:22.020Z,9.33
2022-11-09T05:38:49.499Z,9.13
2022-11-09T05:41:16.770Z,10.13
2022-11-09T05:43:47.750Z,10.20
2022-11-09T05:46:15.978Z,10.37
2022-11-09T05:48:43.570Z,11.07
2022-11-09T05:51:12.325Z,11.07
2022-11-09T05:53:43.726Z,10.80
2022-11-09T05:56:14.286Z,10.93
2022-11-09T05:58:41.932Z,11.33
2022-11-09T06:01:12.449Z,11.40
2022-11-09T06:03:40.413Z,11.00
2022-11-09T06:06:09.086Z,11.93
2022-11-09T06:08:36.634Z,12.17
2022-11-09T06:11:05.342Z,12.93
2022-11-09T06:13:32.770Z,12.67
2022-11-09T06:16:01.027Z,13.53
2022-11-09T06:18:31.114Z,13.10
2022-11-09T06:20:59.940Z,13.20
2022-11-09T06:23:27.617Z,13.40
2022-11-09T06:25:57.721Z,12.97
2022-11-09T06:28:24.821Z,13.63
2022-11-09T06:30:51.830Z,13.53
2022-11-09T06:33:19.009Z,13.23
2022-11-09T06:35:52.101Z,13.33
2022-11-09T06:38:21.993Z,13.60
2022-11-09T06:40:51.962Z,13.07
2022-11-09T06:43:19.479Z,14.63
2022-11-09T06:45:46.757Z,14.63
2022-11-09T06:48:13.956Z,15.77
2022-11-09T06:50:41.089Z,14.53
2022-11-09T06:53:12.918Z,14.77
2022-11-09T06:55:42.332Z,16.07
2022-11-09T06:58:15.751Z,15.27
2022-11-09T07:00:43.305Z,15.70
2022-11-09T07:03:14.742Z,16.23
2022-11-09T07:05:41.725Z,15.63
2022-11-09T07:08:10.300Z,16.43
2022-11-09T07:10:37.606Z,15.23
2022-11-09T07:13:04.782Z,16.33
2022-11-09T07:15:32.143Z,15.87
2022-11-09T07:17:59.626Z,14.67
2022-11-09T07:20:27.130Z,14.60
2022-11-09T07:22:54.259Z,15.23
2022-11-09T07:25:22.826Z,15.10
2022-11-09T07:27:49.786Z,14.57
2022-11-09T07:30:16.886Z,15.23
2022-11-09T07:35:30.742Z,16.13
2022-11-09T07:38:01.448Z,15.70
2022-11-09T07:40:30.481Z,16.30
2022-11-09T07:42:59.303Z,16.07
2022-11-09T07:45:26.298Z,16.90
2022-11-09T07:47:56.116Z,17.63
2022-11-09T07:50:22.994Z,17.53
2022-11-09T07:52:49.887Z,16.80
2022-11-09T07:55:17.676Z,15.63
2022-11-09T07:57:47.111Z,16.00
2022-11-09T08:00:17.713Z,15.17
2022-11-09T08:02:49.192Z,15.13
2022-11-09T08:05:16.244Z,15.07
2022-11-09T08:07:43.293Z,14.57
2022-11-09T08:10:10.795Z,15.63
2022-11-09T08:12:38.235Z,15.97
2022-11-09T08:15:08.205Z,16.03
2022-11-09T08:17:35.283Z,15.83
2022-11-09T08:20:02.811Z,16.27
2022-11-09T08:22:29.795Z,15.73
2022-11-09T08:24:56.679Z,16.60
2022-11-09T08:27:23.651Z,16.47
2022-11-09T08:29:50.512Z,17.30
2022-11-09T08:32:18.933Z,17.57
2022-11-09T08:34:48.031Z,17.23
2022-11-09T08:37:15.341Z,16.97
2022-11-09T08:39:42.365Z,17.80
2022-11-09T08:42:09.200Z,16.23
2022-11-09T08:44:36.144Z,16.50
2022-11-09T08:47:03.186Z,16.43
2022-11-09T08:49:32.371Z,19.17
2022-11-09T08:51:59.349Z,16.17
2022-11-09T08:54:26.403Z,14.23
2022-11-09T08:56:55.422Z,14.70
2022-11-09T08:59:22.503Z,14.33
2022-11-09T09:01:49.721Z,12.40
2022-11-09T09:04:16.974Z,11.33
2022-11-09T09:06:45.437Z,11.33
2022-11-09T09:09:12.339Z,10.70
2022-11-09T09:11:39.441Z,11.67
2022-11-09T09:14:06.485Z,10.60
2022-11-09T09:16:33.623Z,9.93
2022-11-09T09:19:00.581Z,10.00
2022-11-09T09:21:27.866Z,9.23
2022-11-09T09:23:56.480Z,9.40
2022-11-09T09:26:23.431Z,8.43
2022-11-09T09:28:51.457Z,8.63
2022-11-09T09:31:19.008Z,6.93
2022-11-09T09:33:47.511Z,6.60
2022-11-09T09:36:17.672Z,6.80
2022-11-09T09:38:44.870Z,6.63
2022-11-09T09:41:20.785Z,5.00
2022-11-09T09:43:49.859Z,5.40
2022-11-09T09:46:22.417Z,5.03
2022-11-09T09:48:54.940Z,4.03
2022-11-09T09:51:30.254Z,3.73
2022-11-09T09:54:03.526Z,3.60
2022-11-09T09:56:34.909Z,3.33
2022-11-09T09:59:07.003Z,3.50
2022-11-09T10:01:37.858Z,2.53
2022-11-09T10:04:14.385Z,2.40
2022-11-09T10:06:59.587Z,2.53
2022-11-09T10:09:38.594Z,2.80
2022-11-09T10:12:22.177Z,2.60
2022-11-09T10:15:17.184Z,2.60
2022-11-09T10:17:55.907Z,3.07
2022-11-09T10:20:37.522Z,2.30
2022-11-09T10:23:28.710Z,2.63
2022-11-09T10:26:05.482Z,1.70
2022-11-09T10:29:01.595Z,1.77
2022-11-09T10:31:32.042Z,2.00
2022-11-09T10:34:08.136Z,1.70
2022-11-09T10:36:43.707Z,2.00
2022-11-09T10:39:15.112Z,1.50
2022-11-09T10:41:46.392Z,1.37
2022-11-09T10:44:17.860Z,1.47
2022-11-09T10:47:07.159Z,1.83
2022-11-09T10:49:34.707Z,1.43
2022-11-09T10:52:02.056Z,1.37
2022-11-09T10:54:32.427Z,0.90
2022-11-09T10:57:06.753Z,1.10
2022-11-09T10:59:51.249Z,1.20
2022-11-09T11:02:44.280Z,1.23
2022-11-09T11:05:32.885Z,1.43
2022-11-09T11:08:20.259Z,0.83
2022-11-09T11:10:47.362Z,6.80
2022-11-09T11:13:24.863Z,1.00
2022-11-09T11:15:53.291Z,1.10
2022-11-09T11:18:23.636Z,1.00
2022-11-09T11:21:07.524Z,0.87
2022-11-09T11:23:37.101Z,1.10
2022-11-09T11:26:24.998Z,0.90
2022-11-09T11:28:57.795Z,1.43
2022-11-09T11:31:26.193Z,1.03
2022-11-09T11:33:53.149Z,1.10
2022-11-09T11:36:26.263Z,1.10
2022-11-09T11:39:04.522Z,1.10
2022-11-09T11:41:56.147Z,0.90
2022-11-09T11:44:38.704Z,0.90
2022-11-09T11:47:16.260Z,1.13
2022-11-09T11:50:02.550Z,0.93
2022-11-09T11:52:41.027Z,0.73
2022-11-09T11:55:30.095Z,0.70
2022-11-09T11:58:13.980Z,0.87
2022-11-09T12:00:47.377Z,0.90
2022-11-09T12:03:34.033Z,1.03
2022-11-09T12:06:44.314Z,0.77
2022-11-09T12:09:27.348Z,0.97
2022-11-09T12:12:11.056Z,1.00
2022-11-09T12:14:49.037Z,0.90
2022-11-09T12:17:23.346Z,0.83
2022-11-09T12:20:18.041Z,1.10
2022-11-09T12:22:56.003Z,0.60
2022-11-09T12:25:29.369Z,0.83
2022-11-09T12:28:22.679Z,0.73
2022-11-09T12:31:04.652Z,0.80
2022-11-09T12:33:43.402Z,0.80
2022-11-09T12:36:20.298Z,0.90
2022-11-09T12:38:56.290Z,0.70
2022-11-09T12:41:27.688Z,0.90
2022-11-09T12:44:00.423Z,0.33
2022-11-09T12:46:32.368Z,1.03
2022-11-09T12:49:03.358Z,0.80
2022-11-09T12:51:33.275Z,0.77
2022-11-09T12:54:02.596Z,0.80
2022-11-09T12:56:33.392Z,0.80
2022-11-09T12:59:22.299Z,0.90
2022-11-09T13:01:54.671Z,0.80
2022-11-09T13:04:23.775Z,0.80
2022-11-09T13:07:17.738Z,0.83
2022-11-09T13:09:45.406Z,0.73
2022-11-09T13:12:20.082Z,0.67
2022-11-09T13:14:47.448Z,1.00
2022-11-09T13:18:00.245Z,1.30
2022-11-09T13:20:56.624Z,0.90
2022-11-09T13:23:59.202Z,0.90
2022-11-09T13:26:24.958Z,0.80
2022-11-09T13:29:21.013Z,0.70
2022-11-09T13:32:05.159Z,0.50
2022-11-09T13:34:50.764Z,0.80
2022-11-09T13:37:48.087Z,0.83
2022-11-09T13:40:40.678Z,1.00
2022-11-09T13:43:22.398Z,1.63
2022-11-09T13:45:52.477Z,0.83
2022-11-09T13:48:40.271Z,0.87
2022-11-09T13:51:10.530Z,0.80
2022-11-09T13:53:56.398Z,0.67
2022-11-09T13:56:28.838Z,0.97
2022-11-09T13:58:59.813Z,0.73
2022-11-09T14:01:29.801Z,0.80
2022-11-09T14:03:58.101Z,0.80
2022-11-09T14:06:27.975Z,0.77
2022-11-09T14:08:55.582Z,0.77
2022-11-09T14:11:51.001Z,0.60
2022-11-09T14:14:52.544Z,0.80
2022-11-09T14:17:26.304Z,1.13
2022-11-09T14:20:09.199Z,0.83
2022-11-09T14:22:40.601Z,0.93
2022-11-09T14:25:14.636Z,0.87
2022-11-09T14:27:50.554Z,1.20
2022-11-09T14:30:22.718Z,0.97
2022-11-09T14:32:51.389Z,0.97
2022-11-09T14:35:27.090Z,1.00
2022-11-09T14:37:55.414Z,0.73
2022-11-09T14:40:25.142Z,1.00
2022-11-09T14:42:56.509Z,1.00
2022-11-09T14:45:24.263Z,1.03
2022-11-09T14:47:54.606Z,0.80
2022-11-09T14:50:24.751Z,1.03
2022-11-09T14:52:53.541Z,1.27
2022-11-09T14:55:22.917Z,0.97
2022-11-09T14:57:52.526Z,0.80
2022-11-09T15:00:30.418Z,0.80
2022-11-09T15:02:57.738Z,0.80
2022-11-09T15:05:31.053Z,0.73
2022-11-09T15:07:59.544Z,0.80
2022-11-09T15:10:29.605Z,0.90
2022-11-09T15:13:01.000Z,1.63
2022-11-09T15:15:31.500Z,1.20
2022-11-09T15:17:59.427Z,1.23
2022-11-09T15:20:30.466Z,1.03
2022-11-09T15:22:58.809Z,1.27
2022-11-09T15:25:29.155Z,1.27
2022-11-09T15:27:59.499Z,1.03
2022-11-09T15:30:33.794Z,2.33
2022-11-09T15:33:01.191Z,1.47
2022-11-09T15:35:28.470Z,1.23
2022-11-09T15:37:56.374Z,1.43
2022-11-09T15:40:24.943Z,1.40
2022-11-09T15:42:52.518Z,1.20
2022-11-09T15:45:20.984Z,1.33
2022-11-09T15:47:54.939Z,1.53
2022-11-09T15:50:23.892Z,1.50
2022-11-09T15:52:51.620Z,1.20
2022-11-09T15:55:22.026Z,1.03
2022-11-09T15:57:50.632Z,1.67
2022-11-09T16:00:21.279Z,1.67
2022-11-09T16:02:48.471Z,1.20
2022-11-09T16:05:17.856Z,1.00
2022-11-09T16:07:48.342Z,1.00
2022-11-09T16:10:16.063Z,1.10
2022-11-09T16:12:46.320Z,1.00
2022-11-09T16:15:13.442Z,1.00
2022-11-09T16:17:40.399Z,1.50
2022-11-09T16:20:08.148Z,1.47
2022-11-09T16:22:36.411Z,1.00
2022-11-09T16:25:03.442Z,1.13
2022-11-09T16:30:17.349Z,1.93
2022-11-09T16:32:44.241Z,1.20
2022-11-09T16:35:28.007Z,1.07
2022-11-09T16:37:58.095Z,1.10
2022-11-09T16:40:26.908Z,1.20
2022-11-09T16:42:53.751Z,1.33
2022-11-09T16:45:21.217Z,1.00
2022-11-09T16:47:51.041Z,1.20
2022-11-09T16:50:18.451Z,1.57
2022-11-09T16:52:45.474Z,1.90
2022-11-09T16:55:13.758Z,1.30
2022-11-09T16:57:41.030Z,1.20
2022-11-09T17:00:09.075Z,1.40
2022-11-09T17:02:35.972Z,1.77
2022-11-09T17:05:02.833Z,1.80
2022-11-09T17:07:29.729Z,1.30
2022-11-09T17:09:56.604Z,1.10
2022-11-09T17:12:24.786Z,1.40
2022-11-09T17:14:51.700Z,1.30
2022-11-09T17:17:22.657Z,1.57
2022-11-09T17:19:50.143Z,1.60
2022-11-09T17:22:17.202Z,1.63
2022-11-09T17:24:44.205Z,1.60
2022-11-09T17:27:12.247Z,1.20
2022-11-09T17:29:40.596Z,1.47
2022-11-09T17:32:09.408Z,1.60
2022-11-09T17:34:36.500Z,1.80
2022-11-09T17:37:05.037Z,1.57
2022-11-09T17:39:32.612Z,1.10
2022-11-09T17:41:59.555Z,1.53
2022-11-09T17:44:26.415Z,1.40
2022-11-09T17:46:54.627Z,1.13
2022-11-09T17:49:21.448Z,1.20
2022-11-09T17:51:48.315Z,1.33
2022-11-09T17:54:15.310Z,1.73
2022-11-09T17:56:42.443Z,1.50
2022-11-09T17:59:09.604Z,1.90
2022-11-09T18:01:41.542Z,1.63
2022-11-09T18:04:11.226Z,1.40
2022-11-09T18:06:38.241Z,1.83
2022-11-09T18:11:52.352Z,1.63
2022-11-09T18:14:19.672Z,2.17
2022-11-09T18:16:46.765Z,1.90
2022-11-09T18:19:15.024Z,2.00
2022-11-09T18:21:44.115Z,1.87
2022-11-09T18:24:10.928Z,2.10
2022-11-09T18:26:37.748Z,2.07
2022-11-09T18:29:04.622Z,2.20
2022-11-09T18:31:31.527Z,2.30
2022-11-09T18:33:58.397Z,2.47
2022-11-09T18:36:27.925Z,1.90
2022-11-09T18:38:55.726Z,2.23
2022-11-09T18:41:24.254Z,2.17
2022-11-09T18:43:53.882Z,2.23
2022-11-09T18:46:21.377Z,2.57
2022-11-09T18:48:51.480Z,2.97
2022-11-09T18:51:18.696Z,3.60
2022-11-09T18:53:48.141Z,2.70
2022-11-09T18:56:21.485Z,2.63
2022-11-09T18:58:49.351Z,2.13
2022-11-09T19:01:16.928Z,2.10
2022-11-09T19:03:43.802Z,5.73
2022-11-09T19:06:14.626Z,2.37
2022-11-09T19:09:00.069Z,2.23
2022-11-09T19:11:29.923Z,2.33
2022-11-09T19:13:57.040Z,1.70
2022-11-09T19:16:25.005Z,2.00
2022-11-09T19:18:52.280Z,2.07
2022-11-09T19:21:34.506Z,1.97
2022-11-09T19:24:01.833Z,1.83
2022-11-09T19:26:30.285Z,2.23
2022-11-09T19:28:57.171Z,1.97
2022-11-09T19:31:24.733Z,2.10
2022-11-09T19:33:51.779Z,2.10
2022-11-09T19:36:30.347Z,2.30
2022-11-09T19:38:58.681Z,2.23
2022-11-09T19:41:26.011Z,2.43
2022-11-09T19:43:58.358Z,2.30
2022-11-09T19:46:26.034Z,2.23
2022-11-09T19:48:52.885Z,3.50
2022-11-09T19:51:20.184Z,2.23
2022-11-09T19:53:51.056Z,2.30
2022-11-09T19:56:18.451Z,2.40
2022-11-09T19:58:49.241Z,2.03
2022-11-09T20:01:18.251Z,3.00
2022-11-09T20:03:48.308Z,2.40
2022-11-09T20:06:15.182Z,2.67
2022-11-09T20:08:42.103Z,2.63
2022-11-09T20:11:10.514Z,2.50
2022-11-09T20:13:38.546Z,2.60
2022-11-09T20:16:07.360Z,2.47
2022-11-09T20:18:37.122Z,2.30
2022-11-09T20:21:06.738Z,2.40
2022-11-09T20:23:33.754Z,2.57
2022-11-09T20:26:04.229Z,2.20
2022-11-09T20:28:31.225Z,2.60
2022-11-09T20:30:58.376Z,2.60
2022-11-09T20:33:25.311Z,1.97
2022-11-09T20:35:54.121Z,2.70
2022-11-09T20:38:22.102Z,3.17
2022-11-09T20:40:55.438Z,2.33
2022-11-09T20:43:23.108Z,2.63
2022-11-09T20:45:50.711Z,2.50
2022-11-09T20:48:38.557Z,2.20
2022-11-09T20:51:07.524Z,2.20
2022-11-09T20:53:34.570Z,3.17
2022-11-09T20:56:01.783Z,5.60
2022-11-09T20:58:29.305Z,3.33
2022-11-09T21:01:03.672Z,4.40
2022-11-09T21:03:30.969Z,4.47
2022-11-09T21:05:59.360Z,2.87
2022-11-09T21:08:28.359Z,3.30
2022-11-09T21:10:55.234Z,3.23
2022-11-09T21:13:22.853Z,3.07
2022-11-09T21:15:50.485Z,2.70
2022-11-09T21:18:17.401Z,3.13
2022-11-09T21:20:44.836Z,3.00
2022-11-09T21:23:12.201Z,2.97
2022-11-09T21:26:00.186Z,4.37
2022-11-09T21:28:46.148Z,2.90
2022-11-09T21:31:13.944Z,3.00
2022-11-09T21:33:40.970Z,3.53
2022-11-09T21:36:09.043Z,2.90
2022-11-09T21:38:36.921Z,3.50
2022-11-09T21:41:25.552Z,3.20
2022-11-09T21:43:53.002Z,2.87
2022-11-09T21:46:20.065Z,2.67
2022-11-09T21:48:47.048Z,3.33
2022-11-09T21:51:13.874Z,2.73
2022-11-09T21:53:40.935Z,3.40
2022-11-09T21:56:09.552Z,2.60
2022-11-09T21:58:36.465Z,3.10
2022-11-09T22:01:04.970Z,3.25
2022-11-09T22:03:32.609Z,7.83
2022-11-09T22:05:59.655Z,3.97
2022-11-09T22:08:27.821Z,3.73
2022-11-09T22:11:04.024Z,3.60
2022-11-09T22:13:51.066Z,3.40
2022-11-09T22:16:18.653Z,3.17
2022-11-09T22:19:04.355Z,3.13
2022-11-09T22:21:31.663Z,3.10
2022-11-09T22:23:59.029Z,3.47
2022-11-09T22:26:26.114Z,3.50
2022-11-09T22:28:54.311Z,4.67
2022-11-09T22:31:21.130Z,3.50
2022-11-09T22:33:48.059Z,3.67
2022-11-09T22:36:15.136Z,4.10
2022-11-09T22:38:42.075Z,3.97
2022-11-09T22:41:12.409Z,3.83
2022-11-09T22:43:41.104Z,3.07
2022-11-09T22:46:11.473Z,3.20
2022-11-09T22:48:38.580Z,3.40
2022-11-09T22:51:06.048Z,4.33
2022-11-09T22:53:33.388Z,3.93
2022-11-09T22:56:02.061Z,4.77
2022-11-09T22:58:29.928Z,4.00
2022-11-09T23:01:05.228Z,4.00
2022-11-09T23:03:33.743Z,3.77
2022-11-09T23:06:05.466Z,3.30
2022-11-09T23:08:37.600Z,3.33
2022-11-09T23:11:06.478Z,3.50
2022-11-09T23:13:33.571Z,3.07
2022-11-09T23:16:02.697Z,3.13
2022-11-09T23:18:48.939Z,3.40
2022-11-09T23:21:17.732Z,3.23
2022-11-09T23:23:44.992Z,2.90
2022-11-09T23:26:12.269Z,3.50
2022-11-09T23:28:39.157Z,3.13
2022-11-09T23:31:09.451Z,2.83
2022-11-09T23:33:37.187Z,2.40
2022-11-09T23:36:05.793Z,2.63
2022-11-09T23:38:34.738Z,5.40
2022-11-09T23:41:02.047Z,2.70
2022-11-09T23:43:29.056Z,2.83
2022-11-09T23:45:58.195Z,2.63
2022-11-09T23:48:25.032Z,2.60
2022-11-09T23:50:51.910Z,2.33
2022-11-09T23:53:19.134Z,2.57
2022-11-09T23:55:47.492Z,2.43
2022-11-09T23:58:14.313Z,2.37
